createdAt,value
2023-04-07T00:00:41.264Z,20.64
2023-04-07T00:01:46.477Z,20.64
2023-04-07T00:02:51.931Z,20.6
2023-04-07T00:03:57.712Z,20.63
2023-04-07T00:05:04.198Z,20.62
2023-04-07T00:06:09.643Z,20.62
2023-04-07T00:07:15.020Z,20.62
2023-04-07T00:08:20.246Z,20.62
2023-04-07T00:09:25.451Z,20.61
2023-04-07T00:10:30.646Z,20.59
2023-04-07T00:11:35.855Z,20.6
2023-04-07T00:12:41.039Z,20.58
2023-04-07T00:13:46.266Z,20.57
2023-04-07T00:14:51.461Z,20.58
2023-04-07T00:15:56.702Z,20.57
2023-04-07T00:17:02.019Z,20.56
2023-04-07T00:18:07.291Z,20.55
2023-04-07T00:19:12.761Z,20.55
2023-04-07T00:20:17.998Z,20.56
2023-04-07T00:21:23.212Z,20.55
2023-04-07T00:22:28.447Z,20.55
2023-04-07T00:23:33.664Z,20.5
2023-04-07T00:24:38.902Z,20.53
2023-04-07T00:25:44.135Z,20.52
2023-04-07T00:26:49.409Z,20.53
2023-04-07T00:27:54.612Z,20.5
2023-04-07T00:28:59.801Z,20.53
2023-04-07T00:30:05.003Z,20.52
2023-04-07T00:31:10.268Z,20.51
2023-04-07T00:32:15.616Z,20.49
2023-04-07T00:33:20.805Z,20.49
2023-04-07T00:34:25.997Z,20.49
2023-04-07T00:35:31.219Z,20.46
2023-04-07T00:36:36.543Z,20.49
2023-04-07T00:37:41.811Z,20.48
2023-04-07T00:38:47.002Z,20.5
2023-04-07T00:39:52.208Z,20.52
2023-04-07T00:40:57.381Z,20.53
2023-04-07T00:42:02.580Z,20.54
2023-04-07T00:43:08.023Z,20.55
2023-04-07T00:44:13.229Z,20.56
2023-04-07T00:45:18.459Z,20.59
2023-04-07T00:46:23.680Z,20.64
2023-04-07T00:47:29.073Z,20.67
2023-04-07T00:48:34.377Z,20.7
2023-04-07T00:49:39.605Z,20.73
2023-04-07T00:50:44.804Z,20.72
2023-04-07T00:51:49.977Z,20.77
2023-04-07T00:52:55.214Z,20.8
2023-04-07T00:54:00.421Z,20.82
2023-04-07T00:55:05.616Z,20.82
2023-04-07T00:56:10.814Z,20.85
2023-04-07T00:57:16.024Z,20.85
2023-04-07T00:58:21.238Z,20.89
2023-04-07T00:59:26.466Z,20.92
2023-04-07T01:00:31.819Z,20.94
2023-04-07T01:01:37.044Z,20.95
2023-04-07T01:02:42.762Z,20.98
2023-04-07T01:03:48.998Z,20.99
2023-04-07T01:04:54.806Z,21.04
2023-04-07T01:06:00.289Z,21.06
2023-04-07T01:07:05.483Z,21.05
2023-04-07T01:08:10.686Z,21.09
2023-04-07T01:09:15.879Z,21.11
2023-04-07T01:10:21.042Z,21.12
2023-04-07T01:11:26.252Z,21.15
2023-04-07T01:12:31.459Z,21.16
2023-04-07T01:13:36.640Z,21.18
2023-04-07T01:14:41.887Z,21.17
2023-04-07T01:15:47.128Z,21.18
2023-04-07T01:16:53.911Z,21.17
2023-04-07T01:17:59.904Z,21.17
2023-04-07T01:19:05.237Z,21.15
2023-04-07T01:20:10.479Z,21.17
2023-04-07T01:21:15.663Z,21.16
2023-04-07T01:22:20.924Z,21.14
2023-04-07T01:23:26.126Z,21.12
2023-04-07T01:24:31.329Z,21.11
2023-04-07T01:25:36.519Z,21.09
2023-04-07T01:26:41.728Z,21.09
2023-04-07T01:27:46.913Z,21.08
2023-04-07T01:28:52.162Z,21.08
2023-04-07T01:29:57.640Z,21.07
2023-04-07T01:31:02.833Z,21.11
2023-04-07T01:32:08.048Z,21.13
2023-04-07T01:33:13.451Z,21.12
2023-04-07T01:34:18.636Z,21.16
2023-04-07T01:35:23.863Z,21.18
2023-04-07T01:36:29.051Z,21.21
2023-04-07T01:37:34.213Z,21.26
2023-04-07T01:38:39.432Z,21.29
2023-04-07T01:39:44.700Z,21.32
2023-04-07T01:40:50.044Z,21.31
2023-04-07T01:41:55.249Z,21.33
2023-04-07T01:43:00.441Z,21.35
2023-04-07T01:44:05.708Z,21.34
2023-04-07T01:45:10.915Z,21.31
2023-04-07T01:46:16.136Z,21.33
2023-04-07T01:47:21.365Z,21.31
2023-04-07T01:48:27.152Z,21.3
2023-04-07T01:49:32.369Z,21.3
2023-04-07T01:50:37.556Z,21.26
2023-04-07T01:51:42.760Z,21.23
2023-04-07T01:52:47.975Z,21.23
2023-04-07T01:53:53.351Z,21.2
2023-04-07T01:54:59.282Z,21.19
2023-04-07T01:56:04.523Z,21.2
2023-04-07T01:57:09.721Z,21.17
2023-04-07T01:58:14.962Z,21.17
2023-04-07T01:59:20.269Z,21.14
2023-04-07T02:00:25.516Z,21.15
2023-04-07T02:01:30.774Z,21.13
2023-04-07T02:02:36.356Z,21.11
2023-04-07T02:03:42.091Z,21.12
2023-04-07T02:04:47.629Z,21.12
2023-04-07T02:05:52.805Z,21.16
2023-04-07T02:06:58.000Z,21.18
2023-04-07T02:08:03.235Z,21.19
2023-04-07T02:09:08.488Z,21.24
2023-04-07T02:10:13.706Z,21.28
2023-04-07T02:11:18.958Z,21.26
2023-04-07T02:12:24.168Z,21.33
2023-04-07T02:13:29.365Z,21.36
2023-04-07T02:14:34.561Z,21.37
2023-04-07T02:15:39.783Z,21.4
2023-04-07T02:16:46.263Z,21.41
2023-04-07T02:17:53.317Z,21.41
2023-04-07T02:18:58.825Z,21.45
2023-04-07T02:20:04.186Z,21.42
2023-04-07T02:21:09.452Z,21.44
2023-04-07T02:22:14.612Z,21.42
2023-04-07T02:23:19.809Z,21.4
2023-04-07T02:24:24.981Z,21.38
2023-04-07T02:25:30.191Z,21.38
2023-04-07T02:26:35.526Z,21.37
2023-04-07T02:27:40.779Z,21.36
2023-04-07T02:28:45.954Z,21.36
2023-04-07T02:29:51.141Z,21.34
2023-04-07T02:30:56.376Z,21.32
2023-04-07T02:32:01.637Z,21.33
2023-04-07T02:33:07.273Z,21.34
2023-04-07T02:34:12.637Z,21.35
2023-04-07T02:35:17.830Z,21.36
2023-04-07T02:36:23.080Z,21.39
2023-04-07T02:37:28.322Z,21.39
2023-04-07T02:38:33.523Z,21.44
2023-04-07T02:39:38.735Z,21.47
2023-04-07T02:40:43.933Z,21.5
2023-04-07T02:41:49.171Z,21.52
2023-04-07T02:42:54.382Z,21.56
2023-04-07T02:43:59.590Z,21.59
2023-04-07T02:45:04.822Z,21.59
2023-04-07T02:46:10.076Z,21.62
2023-04-07T02:47:18.031Z,21.65
2023-04-07T02:48:23.368Z,21.66
2023-04-07T02:49:28.550Z,21.69
2023-04-07T02:50:33.770Z,21.71
2023-04-07T02:51:38.966Z,21.74
2023-04-07T02:52:44.225Z,21.77
2023-04-07T02:53:49.443Z,21.8
2023-04-07T02:54:54.873Z,21.79
2023-04-07T02:56:00.130Z,21.83
2023-04-07T02:57:05.369Z,21.85
2023-04-07T02:58:10.617Z,21.86
2023-04-07T02:59:15.838Z,21.87
2023-04-07T03:00:21.055Z,21.87
2023-04-07T03:01:26.299Z,21.9
2023-04-07T03:02:31.833Z,21.91
2023-04-07T03:03:37.651Z,21.94
2023-04-07T03:04:43.198Z,21.94
2023-04-07T03:05:48.415Z,21.98
2023-04-07T03:06:53.602Z,22
2023-04-07T03:07:58.806Z,21.99
2023-04-07T03:09:04.032Z,22
2023-04-07T03:10:09.239Z,21.97
2023-04-07T03:11:14.435Z,21.93
2023-04-07T03:12:19.646Z,21.93
2023-04-07T03:13:24.876Z,21.9
2023-04-07T03:14:30.097Z,21.89
2023-04-07T03:15:35.284Z,21.88
2023-04-07T03:16:40.552Z,21.87
2023-04-07T03:17:45.882Z,21.85
2023-04-07T03:18:51.278Z,21.81
2023-04-07T03:19:56.491Z,21.79
2023-04-07T03:21:01.679Z,21.8
2023-04-07T03:22:06.883Z,21.79
2023-04-07T03:23:12.067Z,21.78
2023-04-07T03:24:17.323Z,21.78
2023-04-07T03:25:22.700Z,21.77
2023-04-07T03:26:28.018Z,21.79
2023-04-07T03:27:33.211Z,21.8
2023-04-07T03:28:38.404Z,21.84
2023-04-07T03:29:43.617Z,21.86
2023-04-07T03:30:48.834Z,21.87
2023-04-07T03:31:54.111Z,21.93
2023-04-07T03:32:59.485Z,21.94
2023-04-07T03:34:04.927Z,21.99
2023-04-07T03:35:10.138Z,21.99
2023-04-07T03:36:15.353Z,22
2023-04-07T03:37:20.650Z,22.06
2023-04-07T03:38:25.923Z,22.07
2023-04-07T03:39:31.104Z,22.08
2023-04-07T03:40:36.322Z,22.09
2023-04-07T03:41:41.537Z,22.1
2023-04-07T03:42:46.850Z,22.13
2023-04-07T03:43:52.325Z,22.16
2023-04-07T03:44:58.030Z,22.2
2023-04-07T03:46:03.397Z,22.23
2023-04-07T03:47:08.764Z,22.23
2023-04-07T03:48:13.949Z,22.24
2023-04-07T03:49:19.142Z,22.22
2023-04-07T03:50:24.344Z,22.23
2023-04-07T03:51:29.746Z,22.24
2023-04-07T03:52:34.974Z,22.26
2023-04-07T03:53:40.156Z,22.32
2023-04-07T03:54:45.361Z,22.29
2023-04-07T03:55:50.551Z,22.26
2023-04-07T03:56:55.759Z,22.27
2023-04-07T03:58:00.976Z,22.23
2023-04-07T03:59:06.209Z,22.22
2023-04-07T04:00:11.390Z,22.19
2023-04-07T04:01:16.603Z,22.18
2023-04-07T04:02:21.873Z,22.18
2023-04-07T04:03:27.451Z,22.15
2023-04-07T04:04:33.227Z,22.12
2023-04-07T04:05:38.553Z,22.1
2023-04-07T04:06:43.784Z,22.12
2023-04-07T04:07:48.982Z,22.12
2023-04-07T04:08:54.224Z,22.12
2023-04-07T04:09:59.429Z,22.12
2023-04-07T04:11:04.660Z,22.15
2023-04-07T04:12:09.842Z,22.18
2023-04-07T04:13:15.022Z,22.21
2023-04-07T04:14:20.239Z,22.24
2023-04-07T04:15:25.464Z,22.26
2023-04-07T04:16:30.705Z,22.24
2023-04-07T04:17:36.091Z,22.23
2023-04-07T04:18:41.552Z,22.24
2023-04-07T04:19:46.764Z,22.2
2023-04-07T04:20:51.967Z,22.19
2023-04-07T04:21:57.159Z,22.19
2023-04-07T04:23:02.372Z,22.19
2023-04-07T04:24:07.591Z,22.18
2023-04-07T04:25:12.853Z,22.2
2023-04-07T04:26:18.347Z,22.2
2023-04-07T04:27:23.519Z,22.23
2023-04-07T04:28:28.746Z,22.24
2023-04-07T04:29:33.985Z,22.23
2023-04-07T04:30:39.224Z,22.24
2023-04-07T04:31:44.439Z,22.26
2023-04-07T04:32:49.869Z,22.29
2023-04-07T04:33:55.236Z,22.3
2023-04-07T04:35:00.509Z,22.32
2023-04-07T04:36:05.741Z,22.34
2023-04-07T04:37:10.942Z,22.34
2023-04-07T04:38:16.144Z,22.39
2023-04-07T04:39:21.365Z,22.42
2023-04-07T04:40:26.565Z,22.44
2023-04-07T04:41:31.774Z,22.46
2023-04-07T04:42:37.134Z,22.46
2023-04-07T04:43:42.588Z,22.47
2023-04-07T04:44:47.939Z,22.46
2023-04-07T04:45:53.147Z,22.46
2023-04-07T04:46:58.401Z,22.45
2023-04-07T04:48:03.811Z,22.41
2023-04-07T04:49:09.202Z,22.39
2023-04-07T04:50:14.407Z,22.39
2023-04-07T04:51:19.621Z,22.38
2023-04-07T04:52:24.911Z,22.35
2023-04-07T04:53:30.083Z,22.33
2023-04-07T04:54:35.263Z,22.31
2023-04-07T04:55:40.493Z,22.31
2023-04-07T04:56:45.787Z,22.27
2023-04-07T04:57:50.993Z,22.26
2023-04-07T04:58:56.185Z,22.27
2023-04-07T05:00:01.364Z,22.26
2023-04-07T05:01:06.629Z,22.22
2023-04-07T05:02:12.005Z,22.23
2023-04-07T05:03:17.774Z,22.22
2023-04-07T05:04:24.008Z,22.23
2023-04-07T05:05:29.822Z,22.23
2023-04-07T05:06:35.061Z,22.2
2023-04-07T05:07:40.277Z,22.22
2023-04-07T05:08:45.522Z,22.2
2023-04-07T05:09:50.738Z,22.2
2023-04-07T05:10:56.012Z,22.15
2023-04-07T05:12:01.232Z,22.15
2023-04-07T05:13:06.466Z,22.16
2023-04-07T05:14:11.690Z,22.15
2023-04-07T05:15:16.924Z,22.12
2023-04-07T05:16:22.164Z,22.11
2023-04-07T05:17:27.566Z,22.1
2023-04-07T05:18:32.864Z,22.08
2023-04-07T05:19:38.122Z,22.04
2023-04-07T05:20:43.337Z,22.05
2023-04-07T05:21:48.583Z,22.03
2023-04-07T05:22:53.778Z,22.02
2023-04-07T05:23:59.023Z,22
2023-04-07T05:25:04.259Z,21.97
2023-04-07T05:26:09.493Z,21.96
2023-04-07T05:27:14.707Z,21.96
2023-04-07T05:28:19.895Z,21.93
2023-04-07T05:29:25.076Z,21.93
2023-04-07T05:30:30.401Z,21.92
2023-04-07T05:31:35.619Z,21.9
2023-04-07T05:32:40.947Z,21.9
2023-04-07T05:33:46.316Z,21.87
2023-04-07T05:34:51.990Z,21.87
2023-04-07T05:35:57.294Z,21.84
2023-04-07T05:37:02.797Z,21.84
2023-04-07T05:38:07.993Z,21.83
2023-04-07T05:39:13.249Z,21.82
2023-04-07T05:40:18.471Z,21.76
2023-04-07T05:41:23.760Z,21.79
2023-04-07T05:42:28.953Z,21.78
2023-04-07T05:43:34.142Z,21.78
2023-04-07T05:44:39.330Z,21.75
2023-04-07T05:45:44.569Z,21.75
2023-04-07T05:46:49.993Z,21.74
2023-04-07T05:47:55.221Z,21.7
2023-04-07T05:49:04.711Z,21.7
2023-04-07T05:50:24.395Z,21.71
2023-04-07T05:51:29.689Z,21.69
2023-04-07T05:52:34.925Z,21.7
2023-04-07T05:53:40.137Z,21.68
2023-04-07T05:54:45.358Z,21.67
2023-04-07T05:55:50.584Z,21.66
2023-04-07T05:56:55.789Z,21.65
2023-04-07T05:58:01.011Z,21.64
2023-04-07T05:59:06.237Z,21.63
2023-04-07T06:00:11.472Z,21.62
2023-04-07T06:01:16.701Z,21.61
2023-04-07T06:02:22.026Z,21.6
2023-04-07T06:03:27.832Z,21.57
2023-04-07T06:04:33.340Z,21.55
2023-04-07T06:05:38.584Z,21.56
2023-04-07T06:06:44.165Z,21.54
2023-04-07T06:07:49.402Z,21.55
2023-04-07T06:08:54.602Z,21.54
2023-04-07T06:09:59.792Z,21.53
2023-04-07T06:11:04.976Z,21.5
2023-04-07T06:12:10.167Z,21.48
2023-04-07T06:13:15.438Z,21.48
2023-04-07T06:14:20.658Z,21.46
2023-04-07T06:15:25.895Z,21.46
2023-04-07T06:16:31.125Z,21.45
2023-04-07T06:17:36.493Z,21.45
2023-04-07T06:18:41.738Z,21.42
2023-04-07T06:19:46.925Z,21.44
2023-04-07T06:20:52.207Z,21.42
2023-04-07T06:21:57.407Z,21.42
2023-04-07T06:23:02.621Z,21.4
2023-04-07T06:24:07.849Z,21.4
2023-04-07T06:25:13.074Z,21.39
2023-04-07T06:26:18.328Z,21.36
2023-04-07T06:27:23.572Z,21.37
2023-04-07T06:28:28.760Z,21.36
2023-04-07T06:29:33.949Z,21.33
2023-04-07T06:30:39.171Z,21.35
2023-04-07T06:31:44.545Z,21.33
2023-04-07T06:32:49.888Z,21.32
2023-04-07T06:33:55.298Z,21.31
2023-04-07T06:35:00.495Z,21.32
2023-04-07T06:36:05.695Z,21.32
2023-04-07T06:37:10.881Z,21.3
2023-04-07T06:38:16.181Z,21.28
2023-04-07T06:39:21.396Z,21.28
2023-04-07T06:40:26.783Z,21.25
2023-04-07T06:41:32.013Z,21.26
2023-04-07T06:42:37.203Z,21.26
2023-04-07T06:43:42.503Z,21.25
2023-04-07T06:44:47.985Z,21.23
2023-04-07T06:45:53.221Z,21.2
2023-04-07T06:46:58.487Z,21.22
2023-04-07T06:48:03.710Z,21.2
2023-04-07T06:49:09.141Z,21.18
2023-04-07T06:50:14.634Z,21.2
2023-04-07T06:51:19.816Z,21.19
2023-04-07T06:52:25.054Z,21.18
2023-04-07T06:53:30.284Z,21.15
2023-04-07T06:54:35.520Z,21.16
2023-04-07T06:55:40.724Z,21.15
2023-04-07T06:56:46.178Z,21.13
2023-04-07T06:57:51.402Z,21.14
2023-04-07T06:58:56.616Z,21.16
2023-04-07T07:00:01.918Z,21.15
2023-04-07T07:01:07.263Z,21.15
2023-04-07T07:02:12.753Z,21.13
2023-04-07T07:03:18.733Z,21.15
2023-04-07T07:04:24.626Z,21.12
2023-04-07T07:05:30.353Z,21.13
2023-04-07T07:06:35.668Z,21.1
2023-04-07T07:07:40.914Z,21.12
2023-04-07T07:08:46.205Z,21.1
2023-04-07T07:09:51.415Z,21.08
2023-04-07T07:10:56.612Z,21.09
2023-04-07T07:12:02.850Z,21.07
2023-04-07T07:13:09.168Z,21.07
2023-04-07T07:14:14.364Z,21.05
2023-04-07T07:15:19.567Z,21.04
2023-04-07T07:16:25.110Z,21.03
2023-04-07T07:17:30.355Z,21.03
2023-04-07T07:18:35.684Z,21.01
2023-04-07T07:19:40.905Z,21.02
2023-04-07T07:20:46.105Z,21.03
2023-04-07T07:21:51.317Z,21.02
2023-04-07T07:22:56.509Z,21
2023-04-07T07:24:03.188Z,20.99
2023-04-07T07:25:08.399Z,21
2023-04-07T07:26:13.624Z,20.98
2023-04-07T07:27:18.816Z,21
2023-04-07T07:28:24.031Z,20.98
2023-04-07T07:29:29.248Z,20.95
2023-04-07T07:30:34.481Z,20.96
2023-04-07T07:31:39.668Z,20.96
2023-04-07T07:32:45.029Z,20.94
2023-04-07T07:33:50.638Z,20.93
2023-04-07T07:34:56.001Z,20.9
2023-04-07T07:36:01.239Z,20.91
2023-04-07T07:37:06.485Z,20.92
2023-04-07T07:38:11.681Z,20.9
2023-04-07T07:39:16.865Z,20.92
2023-04-07T07:40:22.088Z,20.91
2023-04-07T07:41:27.347Z,20.9
2023-04-07T07:42:32.644Z,20.89
2023-04-07T07:43:37.934Z,20.89
2023-04-07T07:44:43.148Z,20.88
2023-04-07T07:45:48.366Z,20.84
2023-04-07T07:46:53.645Z,20.84
2023-04-07T07:47:59.190Z,20.84
2023-04-07T07:49:04.529Z,20.84
2023-04-07T07:50:09.767Z,20.85
2023-04-07T07:51:15.135Z,20.83
2023-04-07T07:52:20.353Z,20.85
2023-04-07T07:53:25.658Z,20.84
2023-04-07T07:54:30.894Z,20.82
2023-04-07T07:55:36.247Z,20.83
2023-04-07T07:56:44.019Z,20.82
2023-04-07T07:57:49.254Z,20.82
2023-04-07T07:58:54.487Z,20.8
2023-04-07T08:00:02.076Z,20.8
2023-04-07T08:01:07.280Z,20.79
2023-04-07T08:02:12.496Z,20.79
2023-04-07T08:03:18.068Z,20.79
2023-04-07T08:04:23.511Z,20.77
2023-04-07T08:05:28.942Z,20.78
2023-04-07T08:06:34.145Z,20.75
2023-04-07T08:07:39.339Z,20.76
2023-04-07T08:08:44.653Z,20.72
2023-04-07T08:09:49.892Z,20.72
2023-04-07T08:10:55.119Z,20.74
2023-04-07T08:12:00.325Z,20.71
2023-04-07T08:13:05.544Z,20.74
2023-04-07T08:14:10.794Z,20.74
2023-04-07T08:15:15.988Z,20.75
2023-04-07T08:16:21.224Z,20.74
2023-04-07T08:17:26.703Z,20.71
2023-04-07T08:18:31.977Z,20.72
2023-04-07T08:19:37.230Z,20.71
2023-04-07T08:20:42.482Z,20.71
2023-04-07T08:21:47.688Z,20.71
2023-04-07T08:22:52.930Z,20.71
2023-04-07T08:23:58.151Z,20.69
2023-04-07T08:25:03.367Z,20.7
2023-04-07T08:26:08.599Z,20.69
2023-04-07T08:27:13.772Z,20.67
2023-04-07T08:28:18.962Z,20.68
2023-04-07T08:29:24.207Z,20.69
2023-04-07T08:30:29.472Z,20.65
2023-04-07T08:31:34.769Z,20.64
2023-04-07T08:32:40.193Z,20.65
2023-04-07T08:33:45.686Z,20.65
2023-04-07T08:34:51.950Z,20.64
2023-04-07T08:35:57.175Z,20.62
2023-04-07T08:37:02.505Z,20.63
2023-04-07T08:38:07.689Z,20.63
2023-04-07T08:39:12.880Z,20.63
2023-04-07T08:40:18.086Z,20.62
2023-04-07T08:41:23.277Z,20.62
2023-04-07T08:42:28.445Z,20.61
2023-04-07T08:43:33.653Z,20.61
2023-04-07T08:44:38.826Z,20.58
2023-04-07T08:45:44.025Z,20.61
2023-04-07T08:46:49.336Z,20.59
2023-04-07T08:47:54.849Z,20.6
2023-04-07T08:49:00.158Z,20.59
2023-04-07T08:50:05.335Z,20.59
2023-04-07T08:51:10.534Z,20.59
2023-04-07T08:52:15.712Z,20.58
2023-04-07T08:53:20.908Z,20.57
2023-04-07T08:54:26.104Z,20.56
2023-04-07T08:55:31.320Z,20.57
2023-04-07T08:56:36.616Z,20.55
2023-04-07T08:57:42.154Z,20.49
2023-04-07T08:58:47.364Z,20.52
2023-04-07T08:59:52.654Z,20.52
2023-04-07T09:00:58.282Z,20.53
2023-04-07T09:02:03.924Z,20.53
2023-04-07T09:03:11.497Z,20.51
2023-04-07T09:04:17.136Z,20.51
2023-04-07T09:05:23.055Z,20.52
2023-04-07T09:06:28.402Z,20.51
2023-04-07T09:07:33.807Z,20.52
2023-04-07T09:08:39.027Z,20.54
2023-04-07T09:09:44.203Z,20.54
2023-04-07T09:10:52.359Z,20.56
2023-04-07T09:12:08.958Z,20.57
2023-04-07T09:13:14.183Z,20.58
2023-04-07T09:14:19.497Z,20.6
2023-04-07T09:15:24.744Z,20.6
2023-04-07T09:16:30.101Z,20.63
2023-04-07T09:17:35.516Z,20.67
2023-04-07T09:18:40.946Z,20.68
2023-04-07T09:19:46.383Z,20.71
2023-04-07T09:20:51.798Z,20.73
2023-04-07T09:21:57.214Z,20.76
2023-04-07T09:23:02.450Z,20.77
2023-04-07T09:24:07.652Z,20.79
2023-04-07T09:25:12.866Z,20.79
2023-04-07T09:26:18.326Z,20.81
2023-04-07T09:27:23.892Z,20.84
2023-04-07T09:28:29.193Z,20.85
2023-04-07T09:29:34.451Z,20.87
2023-04-07T09:30:39.665Z,20.91
2023-04-07T09:31:44.880Z,20.95
2023-04-07T09:32:50.289Z,20.96
2023-04-07T09:33:55.930Z,20.96
2023-04-07T09:35:01.239Z,21
2023-04-07T09:36:06.561Z,21
2023-04-07T09:37:12.038Z,21.01
2023-04-07T09:38:17.268Z,21.01
2023-04-07T09:39:22.500Z,20.98
2023-04-07T09:40:27.880Z,20.98
2023-04-07T09:41:33.109Z,20.98
2023-04-07T09:42:38.480Z,20.99
2023-04-07T09:43:43.718Z,20.94
2023-04-07T09:44:49.348Z,20.94
2023-04-07T09:45:54.604Z,20.92
2023-04-07T09:46:59.874Z,20.92
2023-04-07T09:48:05.065Z,20.93
2023-04-07T09:49:10.468Z,20.93
2023-04-07T09:50:15.628Z,20.95
2023-04-07T09:51:20.843Z,20.95
2023-04-07T09:52:26.022Z,20.97
2023-04-07T09:53:31.224Z,21.01
2023-04-07T09:54:36.419Z,21.02
2023-04-07T09:55:41.797Z,21.04
2023-04-07T09:56:47.008Z,21.05
2023-04-07T09:57:54.518Z,21.08
2023-04-07T09:58:59.748Z,21.1
2023-04-07T10:00:05.006Z,21.13
2023-04-07T10:01:10.271Z,21.13
2023-04-07T10:02:15.656Z,21.17
2023-04-07T10:03:20.955Z,21.21
2023-04-07T10:04:26.361Z,21.22
2023-04-07T10:05:31.765Z,21.22
2023-04-07T10:06:36.967Z,21.23
2023-04-07T10:07:42.747Z,21.24
2023-04-07T10:08:48.225Z,21.23
2023-04-07T10:09:53.906Z,21.14
2023-04-07T10:10:59.155Z,21.2
2023-04-07T10:12:04.381Z,21.21
2023-04-07T10:13:09.628Z,21.21
2023-04-07T10:14:14.792Z,21.23
2023-04-07T10:15:19.998Z,21.23
2023-04-07T10:16:25.214Z,21.21
2023-04-07T10:17:30.683Z,21.22
2023-04-07T10:18:36.147Z,21.22
2023-04-07T10:19:41.339Z,21.22
2023-04-07T10:20:46.634Z,21.19
2023-04-07T10:21:51.855Z,21.21
2023-04-07T10:22:57.053Z,21.27
2023-04-07T10:24:02.286Z,21.31
2023-04-07T10:25:07.537Z,21.35
2023-04-07T10:26:12.768Z,21.34
2023-04-07T10:27:18.103Z,21.33
2023-04-07T10:28:23.347Z,21.32
2023-04-07T10:29:28.596Z,21.33
2023-04-07T10:30:33.973Z,21.32
2023-04-07T10:31:39.240Z,21.33
2023-04-07T10:32:44.788Z,21.3
2023-04-07T10:33:50.323Z,21.3
2023-04-07T10:34:56.233Z,21.29
2023-04-07T10:36:01.530Z,21.28
2023-04-07T10:37:07.057Z,21.27
2023-04-07T10:38:12.350Z,21.25
2023-04-07T10:39:18.281Z,21.25
2023-04-07T10:40:23.565Z,21.26
2023-04-07T10:41:28.855Z,21.27
2023-04-07T10:42:34.296Z,21.29
2023-04-07T10:43:39.579Z,21.28
2023-04-07T10:44:45.055Z,21.3
2023-04-07T10:45:53.393Z,21.35
2023-04-07T10:46:58.719Z,21.4
2023-04-07T10:48:06.434Z,21.43
2023-04-07T10:49:11.800Z,21.45
2023-04-07T10:50:19.541Z,21.46
2023-04-07T10:51:24.893Z,21.47
2023-04-07T10:52:30.256Z,21.45
2023-04-07T10:53:35.616Z,21.46
2023-04-07T10:54:40.863Z,21.45
2023-04-07T10:55:46.285Z,21.44
2023-04-07T10:56:51.546Z,21.44
2023-04-07T10:57:56.803Z,21.43
2023-04-07T10:59:02.148Z,21.43
2023-04-07T11:00:07.447Z,21.43
2023-04-07T11:01:12.784Z,21.44
2023-04-07T11:02:18.192Z,21.4
2023-04-07T11:03:24.102Z,21.41
2023-04-07T11:04:30.346Z,21.39
2023-04-07T11:05:36.017Z,21.41
2023-04-07T11:06:41.264Z,21.4
2023-04-07T11:07:46.556Z,21.41
2023-04-07T11:08:51.796Z,21.42
2023-04-07T11:09:57.054Z,21.44
2023-04-07T11:11:02.416Z,21.47
2023-04-07T11:12:07.794Z,21.46
2023-04-07T11:13:13.060Z,21.46
2023-04-07T11:14:18.272Z,21.48
2023-04-07T11:15:23.516Z,21.48
2023-04-07T11:16:28.847Z,21.46
2023-04-07T11:17:34.391Z,21.49
2023-04-07T11:18:39.797Z,21.47
2023-04-07T11:19:45.121Z,21.45
2023-04-07T11:20:50.324Z,21.43
2023-04-07T11:21:55.659Z,21.43
2023-04-07T11:23:00.909Z,21.43
2023-04-07T11:24:06.127Z,21.41
2023-04-07T13:56:54.995Z,21.66
2023-04-07T13:58:00.406Z,21.66
2023-04-07T13:59:05.602Z,21.7
2023-04-07T14:00:11.018Z,21.7
2023-04-07T14:01:16.239Z,21.73
2023-04-07T14:02:21.837Z,21.78
2023-04-07T14:03:27.684Z,21.79
2023-04-07T14:04:33.213Z,21.79
2023-04-07T14:05:38.652Z,21.77
2023-04-07T14:06:44.154Z,21.78
2023-04-07T14:07:49.420Z,21.79
2023-04-07T14:08:54.689Z,21.8
2023-04-07T14:10:00.196Z,21.8
2023-04-07T14:11:05.469Z,21.8
2023-04-07T14:12:10.749Z,21.78
2023-04-07T14:13:15.968Z,21.77
2023-04-07T14:14:21.136Z,21.74
2023-04-07T14:15:26.354Z,21.74
2023-04-07T14:16:34.482Z,21.72
2023-04-07T14:17:39.861Z,21.74
2023-04-07T14:18:45.387Z,21.71
2023-04-07T14:19:50.654Z,21.76
2023-04-07T14:20:55.853Z,21.76
2023-04-07T14:22:01.123Z,21.79
2023-04-07T14:23:06.465Z,21.81
2023-04-07T14:24:11.656Z,21.82
2023-04-07T14:25:17.005Z,21.84
2023-04-07T14:26:22.556Z,21.84
2023-04-07T14:27:31.024Z,21.84
2023-04-07T14:28:37.902Z,21.87
2023-04-07T14:29:43.274Z,21.84
2023-04-07T14:30:50.332Z,21.85
2023-04-07T14:31:55.566Z,21.81
2023-04-07T14:33:01.968Z,21.83
2023-04-07T14:34:09.139Z,21.81
2023-04-07T14:35:14.329Z,21.79
2023-04-07T14:36:19.609Z,21.78
2023-04-07T14:37:24.874Z,21.77
2023-04-07T14:38:30.293Z,21.76
2023-04-07T14:39:38.701Z,21.76
2023-04-07T14:40:46.231Z,21.76
2023-04-07T14:41:51.425Z,21.75
2023-04-07T14:44:10.083Z,21.75
2023-04-07T14:45:15.289Z,21.77
2023-04-07T14:46:20.544Z,21.77
2023-04-07T14:47:25.898Z,21.81
2023-04-07T14:48:31.312Z,21.83
2023-04-07T14:49:36.542Z,21.83
2023-04-07T14:50:41.717Z,21.84
2023-04-07T14:51:47.020Z,21.66
2023-04-07T14:52:52.240Z,21.85
2023-04-07T14:53:57.433Z,21.84
2023-04-07T14:55:02.628Z,21.84
2023-04-07T14:56:07.847Z,21.83
2023-04-07T14:57:13.109Z,21.82
2023-04-07T14:58:18.325Z,21.79
2023-04-07T14:59:23.526Z,21.78
2023-04-07T15:00:28.755Z,21.78
2023-04-07T15:01:34.026Z,21.75
2023-04-07T15:02:40.246Z,21.77
2023-04-07T15:03:45.948Z,21.76
2023-04-07T15:04:52.155Z,21.75
2023-04-07T15:05:57.710Z,21.77
2023-04-07T15:07:02.888Z,21.74
2023-04-07T15:08:08.117Z,21.75
2023-04-07T15:09:13.305Z,21.75
2023-04-07T15:10:18.500Z,21.74
2023-04-07T15:11:23.680Z,21.74
2023-04-07T15:12:28.890Z,21.74
2023-04-07T15:13:34.145Z,21.75
2023-04-07T15:14:39.374Z,21.74
2023-04-07T15:15:44.602Z,21.75
2023-04-07T15:16:49.884Z,21.77
2023-04-07T15:17:55.100Z,21.78
2023-04-07T15:19:00.371Z,21.78
2023-04-07T15:20:05.620Z,21.78
2023-04-07T15:21:10.876Z,21.79
2023-04-07T15:22:16.098Z,21.81
2023-04-07T15:23:21.517Z,21.81
2023-04-07T15:24:27.143Z,21.85
2023-04-07T15:25:32.344Z,21.86
2023-04-07T15:26:37.606Z,21.87
2023-04-07T15:27:42.841Z,21.88
2023-04-07T15:28:48.180Z,21.86
2023-04-07T15:29:53.379Z,21.87
2023-04-07T15:30:58.589Z,21.86
2023-04-07T15:32:03.939Z,21.85
2023-04-07T15:33:09.163Z,21.84
2023-04-07T15:34:14.430Z,21.82
2023-04-07T15:35:19.631Z,21.81
2023-04-07T15:36:24.886Z,21.78
2023-04-07T15:37:30.181Z,21.78
2023-04-07T15:38:35.358Z,21.78
2023-04-07T15:39:40.532Z,21.78
2023-04-07T15:40:45.792Z,21.77
2023-04-07T15:41:51.050Z,21.77
2023-04-07T15:42:56.251Z,21.78
2023-04-07T15:44:01.454Z,21.79
2023-04-07T15:45:06.691Z,21.83
2023-04-07T15:46:11.946Z,21.84
2023-04-07T15:47:17.232Z,21.83
2023-04-07T15:48:22.443Z,21.85
2023-04-07T15:49:27.664Z,21.85
2023-04-07T15:50:32.902Z,21.82
2023-04-07T15:51:38.083Z,21.84
2023-04-07T15:52:43.291Z,21.84
2023-04-07T15:53:48.713Z,21.8
2023-04-07T15:54:54.371Z,21.81
2023-04-07T15:55:59.583Z,21.79
2023-04-07T15:57:04.820Z,21.79
2023-04-07T15:58:10.024Z,21.76
2023-04-07T15:59:15.255Z,21.77
2023-04-07T16:00:20.487Z,21.77
2023-04-07T16:01:25.936Z,21.74
2023-04-07T16:02:31.584Z,21.78
2023-04-07T16:03:37.448Z,21.79
2023-04-07T16:04:42.939Z,21.77
2023-04-07T16:05:48.152Z,21.79
2023-04-07T16:06:53.336Z,21.81
2023-04-07T16:07:58.595Z,21.81
2023-04-07T16:09:03.810Z,21.84
2023-04-07T16:10:09.100Z,21.86
2023-04-07T16:11:14.369Z,21.86
2023-04-07T16:12:19.702Z,21.86
2023-04-07T16:13:25.002Z,21.85
2023-04-07T16:14:30.231Z,21.86
2023-04-07T16:15:40.441Z,21.86
2023-04-07T16:16:46.597Z,21.87
2023-04-07T16:17:51.971Z,21.86
2023-04-07T16:18:59.463Z,21.83
2023-04-07T16:20:04.739Z,21.84
2023-04-07T16:21:09.960Z,21.83
2023-04-07T16:22:15.185Z,21.82
2023-04-07T16:23:20.370Z,21.84
2023-04-07T16:24:25.580Z,21.85
2023-04-07T16:25:30.923Z,21.89
2023-04-07T16:26:36.181Z,21.9
2023-04-07T16:27:41.530Z,21.91
2023-04-07T16:28:46.729Z,21.95
2023-04-07T16:29:51.934Z,21.97
2023-04-07T16:30:57.136Z,21.98
2023-04-07T16:32:02.379Z,21.96
2023-04-07T16:33:08.046Z,21.95
2023-04-07T16:34:13.738Z,21.95
2023-04-07T16:35:18.935Z,21.95
2023-04-07T16:36:24.140Z,21.96
2023-04-07T16:37:29.368Z,21.91
2023-04-07T16:38:34.605Z,21.93